sensor_id;sensor_type;location;lat;lon;timestamp;P1;durP1;ratioP1;P2;durP2;ratioP2
51358;SDS011;37448;51.588;7.248;2023-04-03T00:01:57;10.35;;;4.88;;
51358;SDS011;37448;51.588;7.248;2023-04-03T00:03:57;6.28;;;4.22;;
51358;SDS011;37448;51.588;7.248;2023-04-03T00:05:58;7.13;;;4.38;;
51358;SDS011;37448;51.588;7.248;2023-04-03T00:07:58;10.77;;;5.13;;
51358;SDS011;37448;51.588;7.248;2023-04-03T00:09:58;12.15;;;6.05;;
51358;SDS011;37448;51.588;7.248;2023-04-03T00:11:59;10.55;;;6.00;;
51358;SDS011;37448;51.588;7.248;2023-04-03T00:14:00;9.48;;;4.97;;
51358;SDS011;37448;51.588;7.248;2023-04-03T00:16:00;8.43;;;4.13;;
51358;SDS011;37448;51.588;7.248;2023-04-03T00:18:01;6.75;;;3.92;;
51358;SDS011;37448;51.588;7.248;2023-04-03T00:20:02;3.83;;;2.53;;
51358;SDS011;37448;51.588;7.248;2023-04-03T00:22:03;4.13;;;2.63;;
51358;SDS011;37448;51.588;7.248;2023-04-03T00:24:04;5.65;;;3.03;;
51358;SDS011;37448;51.588;7.248;2023-04-03T00:26:05;4.13;;;2.58;;
51358;SDS011;37448;51.588;7.248;2023-04-03T00:28:05;3.25;;;2.17;;
51358;SDS011;37448;51.588;7.248;2023-04-03T00:30:06;3.42;;;1.92;;
51358;SDS011;37448;51.588;7.248;2023-04-03T00:32:10;3.85;;;2.47;;
51358;SDS011;37448;51.588;7.248;2023-04-03T00:34:11;3.53;;;1.83;;
51358;SDS011;37448;51.588;7.248;2023-04-03T00:36:11;2.47;;;2.00;;
51358;SDS011;37448;51.588;7.248;2023-04-03T00:38:12;3.60;;;1.95;;
51358;SDS011;37448;51.588;7.248;2023-04-03T00:40:13;4.72;;;1.48;;
51358;SDS011;37448;51.588;7.248;2023-04-03T00:42:15;3.30;;;1.45;;
51358;SDS011;37448;51.588;7.248;2023-04-03T00:46:34;2.25;;;1.40;;
51358;SDS011;37448;51.588;7.248;2023-04-03T00:48:42;3.22;;;1.38;;
51358;SDS011;37448;51.588;7.248;2023-04-03T00:50:45;1.88;;;1.05;;
51358;SDS011;37448;51.588;7.248;2023-04-03T00:52:46;2.10;;;1.20;;
51358;SDS011;37448;51.588;7.248;2023-04-03T00:54:49;4.53;;;1.13;;
51358;SDS011;37448;51.588;7.248;2023-04-03T00:56:52;2.80;;;2.15;;
51358;SDS011;37448;51.588;7.248;2023-04-03T00:59:02;6.05;;;1.30;;
51358;SDS011;37448;51.588;7.248;2023-04-03T01:01:07;2.78;;;1.08;;
51358;SDS011;37448;51.588;7.248;2023-04-03T01:03:12;1.92;;;1.45;;
51358;SDS011;37448;51.588;7.248;2023-04-03T01:05:13;1.85;;;1.33;;
51358;SDS011;37448;51.588;7.248;2023-04-03T01:07:19;4.95;;;1.70;;
51358;SDS011;37448;51.588;7.248;2023-04-03T01:09:23;2.17;;;1.15;;
51358;SDS011;37448;51.588;7.248;2023-04-03T01:11:23;2.42;;;1.17;;
51358;SDS011;37448;51.588;7.248;2023-04-03T01:13:26;2.28;;;1.15;;
51358;SDS011;37448;51.588;7.248;2023-04-03T01:15:28;3.33;;;1.50;;
51358;SDS011;37448;51.588;7.248;2023-04-03T01:17:36;4.28;;;1.23;;
51358;SDS011;37448;51.588;7.248;2023-04-03T01:19:38;2.00;;;1.00;;
51358;SDS011;37448;51.588;7.248;2023-04-03T01:21:52;3.65;;;1.00;;
51358;SDS011;37448;51.588;7.248;2023-04-03T01:26:14;3.08;;;1.40;;
51358;SDS011;37448;51.588;7.248;2023-04-03T01:28:36;2.55;;;1.17;;
51358;SDS011;37448;51.588;7.248;2023-04-03T01:30:37;3.53;;;0.93;;
51358;SDS011;37448;51.588;7.248;2023-04-03T01:32:44;5.00;;;1.33;;
51358;SDS011;37448;51.588;7.248;2023-04-03T01:34:46;4.35;;;1.08;;
51358;SDS011;37448;51.588;7.248;2023-04-03T01:36:46;4.60;;;1.10;;
51358;SDS011;37448;51.588;7.248;2023-04-03T01:38:47;5.43;;;0.88;;
51358;SDS011;37448;51.588;7.248;2023-04-03T01:40:48;2.58;;;0.93;;
51358;SDS011;37448;51.588;7.248;2023-04-03T01:42:49;5.13;;;1.25;;
51358;SDS011;37448;51.588;7.248;2023-04-03T01:44:49;3.55;;;0.90;;
51358;SDS011;37448;51.588;7.248;2023-04-03T01:46:50;1.88;;;1.13;;
51358;SDS011;37448;51.588;7.248;2023-04-03T01:48:50;1.95;;;1.05;;
51358;SDS011;37448;51.588;7.248;2023-04-03T01:50:51;3.72;;;1.50;;
51358;SDS011;37448;51.588;7.248;2023-04-03T01:52:52;3.35;;;0.93;;
51358;SDS011;37448;51.588;7.248;2023-04-03T01:54:52;4.55;;;1.40;;
51358;SDS011;37448;51.588;7.248;2023-04-03T01:56:53;5.97;;;1.13;;
51358;SDS011;37448;51.588;7.248;2023-04-03T01:58:54;7.97;;;1.35;;
51358;SDS011;37448;51.588;7.248;2023-04-03T02:00:55;3.72;;;0.98;;
51358;SDS011;37448;51.588;7.248;2023-04-03T02:02:55;5.88;;;1.45;;
51358;SDS011;37448;51.588;7.248;2023-04-03T02:04:56;4.35;;;1.92;;
51358;SDS011;37448;51.588;7.248;2023-04-03T02:06:57;3.13;;;1.42;;
51358;SDS011;37448;51.588;7.248;2023-04-03T02:08:57;1.35;;;0.90;;
51358;SDS011;37448;51.588;7.248;2023-04-03T02:10:57;7.20;;;1.73;;
51358;SDS011;37448;51.588;7.248;2023-04-03T02:12:58;3.08;;;1.30;;
51358;SDS011;37448;51.588;7.248;2023-04-03T02:14:59;5.43;;;1.38;;
51358;SDS011;37448;51.588;7.248;2023-04-03T02:17:00;5.68;;;0.98;;
51358;SDS011;37448;51.588;7.248;2023-04-03T02:19:05;2.03;;;0.90;;
51358;SDS011;37448;51.588;7.248;2023-04-03T02:21:05;3.38;;;1.30;;
51358;SDS011;37448;51.588;7.248;2023-04-03T02:23:05;2.75;;;0.60;;
51358;SDS011;37448;51.588;7.248;2023-04-03T02:25:06;2.53;;;1.05;;
51358;SDS011;37448;51.588;7.248;2023-04-03T02:27:07;3.40;;;1.13;;
51358;SDS011;37448;51.588;7.248;2023-04-03T02:29:07;6.22;;;1.38;;
51358;SDS011;37448;51.588;7.248;2023-04-03T02:31:09;3.42;;;1.02;;
51358;SDS011;37448;51.588;7.248;2023-04-03T02:33:11;2.40;;;1.08;;
51358;SDS011;37448;51.588;7.248;2023-04-03T02:35:13;3.13;;;1.95;;
51358;SDS011;37448;51.588;7.248;2023-04-03T02:37:14;1.85;;;0.73;;
51358;SDS011;37448;51.588;7.248;2023-04-03T02:39:15;1.88;;;1.23;;
51358;SDS011;37448;51.588;7.248;2023-04-03T02:41:16;7.13;;;1.77;;
51358;SDS011;37448;51.588;7.248;2023-04-03T02:43:16;5.00;;;1.27;;
51358;SDS011;37448;51.588;7.248;2023-04-03T02:45:17;2.70;;;1.10;;
51358;SDS011;37448;51.588;7.248;2023-04-03T02:47:18;4.90;;;0.85;;
51358;SDS011;37448;51.588;7.248;2023-04-03T02:49:18;1.17;;;0.77;;
51358;SDS011;37448;51.588;7.248;2023-04-03T02:51:18;3.33;;;1.65;;
51358;SDS011;37448;51.588;7.248;2023-04-03T02:53:19;3.58;;;1.08;;
51358;SDS011;37448;51.588;7.248;2023-04-03T02:55:20;3.10;;;0.90;;
51358;SDS011;37448;51.588;7.248;2023-04-03T02:57:22;5.88;;;1.45;;
51358;SDS011;37448;51.588;7.248;2023-04-03T02:59:23;3.80;;;0.90;;
51358;SDS011;37448;51.588;7.248;2023-04-03T03:01:24;3.10;;;0.90;;
51358;SDS011;37448;51.588;7.248;2023-04-03T03:03:24;2.65;;;1.50;;
51358;SDS011;37448;51.588;7.248;2023-04-03T03:05:25;3.50;;;1.92;;
51358;SDS011;37448;51.588;7.248;2023-04-03T03:07:25;6.38;;;1.42;;
51358;SDS011;37448;51.588;7.248;2023-04-03T03:09:26;1.80;;;0.70;;
51358;SDS011;37448;51.588;7.248;2023-04-03T03:11:26;2.78;;;0.82;;
51358;SDS011;37448;51.588;7.248;2023-04-03T03:13:27;6.45;;;1.10;;
51358;SDS011;37448;51.588;7.248;2023-04-03T03:15:27;6.22;;;1.48;;
51358;SDS011;37448;51.588;7.248;2023-04-03T03:17:27;3.13;;;1.10;;
51358;SDS011;37448;51.588;7.248;2023-04-03T03:19:28;3.08;;;1.20;;
51358;SDS011;37448;51.588;7.248;2023-04-03T03:21:28;3.63;;;0.88;;
51358;SDS011;37448;51.588;7.248;2023-04-03T03:23:29;2.85;;;0.90;;
51358;SDS011;37448;51.588;7.248;2023-04-03T03:25:32;3.65;;;0.77;;
51358;SDS011;37448;51.588;7.248;2023-04-03T03:27:32;1.92;;;1.35;;
51358;SDS011;37448;51.588;7.248;2023-04-03T03:29:33;2.78;;;1.20;;
51358;SDS011;37448;51.588;7.248;2023-04-03T03:31:33;2.97;;;1.10;;
51358;SDS011;37448;51.588;7.248;2023-04-03T03:33:33;3.78;;;1.27;;
51358;SDS011;37448;51.588;7.248;2023-04-03T03:35:34;1.73;;;1.02;;
51358;SDS011;37448;51.588;7.248;2023-04-03T03:37:34;1.40;;;1.00;;
51358;SDS011;37448;51.588;7.248;2023-04-03T03:39:35;2.88;;;1.42;;
51358;SDS011;37448;51.588;7.248;2023-04-03T03:41:35;6.10;;;1.40;;
51358;SDS011;37448;51.588;7.248;2023-04-03T03:43:36;5.50;;;1.20;;
51358;SDS011;37448;51.588;7.248;2023-04-03T03:45:39;1.80;;;0.93;;
51358;SDS011;37448;51.588;7.248;2023-04-03T03:47:39;2.42;;;1.42;;
51358;SDS011;37448;51.588;7.248;2023-04-03T03:49:40;1.52;;;1.23;;
51358;SDS011;37448;51.588;7.248;2023-04-03T03:51:41;3.30;;;1.10;;
51358;SDS011;37448;51.588;7.248;2023-04-03T03:53:42;6.47;;;1.20;;
51358;SDS011;37448;51.588;7.248;2023-04-03T03:55:47;2.50;;;1.00;;
51358;SDS011;37448;51.588;7.248;2023-04-03T03:57:47;2.42;;;1.08;;
51358;SDS011;37448;51.588;7.248;2023-04-03T03:59:48;3.90;;;1.00;;
51358;SDS011;37448;51.588;7.248;2023-04-03T04:01:51;3.42;;;0.88;;
51358;SDS011;37448;51.588;7.248;2023-04-03T04:03:51;1.48;;;0.90;;
51358;SDS011;37448;51.588;7.248;2023-04-03T04:05:58;4.28;;;1.25;;
51358;SDS011;37448;51.588;7.248;2023-04-03T04:07:58;2.25;;;1.20;;
51358;SDS011;37448;51.588;7.248;2023-04-03T04:09:59;1.77;;;1.25;;
51358;SDS011;37448;51.588;7.248;2023-04-03T04:12:00;4.45;;;1.30;;
51358;SDS011;37448;51.588;7.248;2023-04-03T04:14:01;4.57;;;1.05;;
51358;SDS011;37448;51.588;7.248;2023-04-03T04:16:03;2.95;;;1.10;;
51358;SDS011;37448;51.588;7.248;2023-04-03T04:18:05;2.55;;;1.00;;
51358;SDS011;37448;51.588;7.248;2023-04-03T04:20:06;4.07;;;1.35;;
51358;SDS011;37448;51.588;7.248;2023-04-03T04:22:07;1.67;;;0.98;;
51358;SDS011;37448;51.588;7.248;2023-04-03T04:24:09;2.20;;;0.75;;
51358;SDS011;37448;51.588;7.248;2023-04-03T04:26:11;3.22;;;1.33;;
51358;SDS011;37448;51.588;7.248;2023-04-03T04:28:12;2.05;;;1.20;;
51358;SDS011;37448;51.588;7.248;2023-04-03T04:30:14;4.18;;;1.33;;
51358;SDS011;37448;51.588;7.248;2023-04-03T04:32:14;4.28;;;1.20;;
51358;SDS011;37448;51.588;7.248;2023-04-03T04:34:15;5.80;;;1.15;;
51358;SDS011;37448;51.588;7.248;2023-04-03T04:36:16;7.45;;;1.75;;
51358;SDS011;37448;51.588;7.248;2023-04-03T04:38:18;4.70;;;1.10;;
51358;SDS011;37448;51.588;7.248;2023-04-03T04:40:19;4.45;;;1.88;;
51358;SDS011;37448;51.588;7.248;2023-04-03T04:42:20;3.70;;;1.50;;
51358;SDS011;37448;51.588;7.248;2023-04-03T04:44:22;6.95;;;1.20;;
51358;SDS011;37448;51.588;7.248;2023-04-03T04:46:23;5.35;;;1.42;;
51358;SDS011;37448;51.588;7.248;2023-04-03T04:48:28;3.97;;;1.52;;
51358;SDS011;37448;51.588;7.248;2023-04-03T04:50:29;2.53;;;1.15;;
51358;SDS011;37448;51.588;7.248;2023-04-03T04:52:29;2.03;;;0.63;;
51358;SDS011;37448;51.588;7.248;2023-04-03T04:54:30;2.33;;;1.17;;
51358;SDS011;37448;51.588;7.248;2023-04-03T04:56:31;7.03;;;1.58;;
51358;SDS011;37448;51.588;7.248;2023-04-03T04:58:32;3.45;;;1.40;;
51358;SDS011;37448;51.588;7.248;2023-04-03T05:00:35;6.28;;;1.20;;
51358;SDS011;37448;51.588;7.248;2023-04-03T05:02:35;2.83;;;1.35;;
51358;SDS011;37448;51.588;7.248;2023-04-03T05:04:36;2.20;;;1.17;;
51358;SDS011;37448;51.588;7.248;2023-04-03T05:06:42;2.15;;;1.05;;
51358;SDS011;37448;51.588;7.248;2023-04-03T05:08:48;4.68;;;1.52;;
51358;SDS011;37448;51.588;7.248;2023-04-03T05:10:48;2.78;;;1.63;;
51358;SDS011;37448;51.588;7.248;2023-04-03T05:12:50;2.50;;;1.52;;
51358;SDS011;37448;51.588;7.248;2023-04-03T05:14:51;3.42;;;1.48;;
51358;SDS011;37448;51.588;7.248;2023-04-03T05:16:51;7.65;;;1.42;;
51358;SDS011;37448;51.588;7.248;2023-04-03T05:18:54;3.95;;;1.38;;
51358;SDS011;37448;51.588;7.248;2023-04-03T05:20:56;4.55;;;1.23;;
51358;SDS011;37448;51.588;7.248;2023-04-03T05:22:59;3.42;;;1.52;;
51358;SDS011;37448;51.588;7.248;2023-04-03T05:24:59;3.85;;;1.55;;
51358;SDS011;37448;51.588;7.248;2023-04-03T05:27:01;4.40;;;1.38;;
51358;SDS011;37448;51.588;7.248;2023-04-03T05:29:02;3.05;;;1.17;;
51358;SDS011;37448;51.588;7.248;2023-04-03T05:31:03;3.60;;;1.40;;
51358;SDS011;37448;51.588;7.248;2023-04-03T05:33:08;2.80;;;1.52;;
51358;SDS011;37448;51.588;7.248;2023-04-03T05:35:17;3.83;;;1.25;;
51358;SDS011;37448;51.588;7.248;2023-04-03T05:37:20;3.42;;;1.30;;
51358;SDS011;37448;51.588;7.248;2023-04-03T05:39:21;4.40;;;1.25;;
51358;SDS011;37448;51.588;7.248;2023-04-03T05:41:22;4.93;;;1.45;;
51358;SDS011;37448;51.588;7.248;2023-04-03T05:43:24;2.88;;;1.35;;
51358;SDS011;37448;51.588;7.248;2023-04-03T05:45:25;4.28;;;1.30;;
51358;SDS011;37448;51.588;7.248;2023-04-03T05:47:25;5.72;;;1.70;;
51358;SDS011;37448;51.588;7.248;2023-04-03T05:49:26;6.68;;;1.23;;
51358;SDS011;37448;51.588;7.248;2023-04-03T05:51:30;2.17;;;1.25;;
51358;SDS011;37448;51.588;7.248;2023-04-03T05:53:39;4.82;;;1.50;;
51358;SDS011;37448;51.588;7.248;2023-04-03T05:55:41;6.28;;;1.63;;
51358;SDS011;37448;51.588;7.248;2023-04-03T05:57:41;3.20;;;1.25;;
51358;SDS011;37448;51.588;7.248;2023-04-03T05:59:42;4.25;;;1.85;;
51358;SDS011;37448;51.588;7.248;2023-04-03T06:01:43;2.45;;;0.98;;
51358;SDS011;37448;51.588;7.248;2023-04-03T06:03:44;5.15;;;1.35;;
51358;SDS011;37448;51.588;7.248;2023-04-03T06:05:44;3.75;;;1.10;;
51358;SDS011;37448;51.588;7.248;2023-04-03T06:07:46;5.18;;;1.10;;
51358;SDS011;37448;51.588;7.248;2023-04-03T06:09:46;4.65;;;1.33;;
51358;SDS011;37448;51.588;7.248;2023-04-03T06:11:48;3.65;;;1.30;;
51358;SDS011;37448;51.588;7.248;2023-04-03T06:13:49;2.67;;;1.20;;
51358;SDS011;37448;51.588;7.248;2023-04-03T06:15:51;1.98;;;1.00;;
51358;SDS011;37448;51.588;7.248;2023-04-03T06:17:52;1.75;;;1.20;;
51358;SDS011;37448;51.588;7.248;2023-04-03T06:19:52;3.88;;;1.35;;
51358;SDS011;37448;51.588;7.248;2023-04-03T06:21:53;5.20;;;1.55;;
51358;SDS011;37448;51.588;7.248;2023-04-03T06:23:53;1.70;;;1.13;;
51358;SDS011;37448;51.588;7.248;2023-04-03T06:25:53;4.72;;;1.15;;
51358;SDS011;37448;51.588;7.248;2023-04-03T06:27:54;4.93;;;1.02;;
51358;SDS011;37448;51.588;7.248;2023-04-03T06:29:55;3.10;;;1.02;;
51358;SDS011;37448;51.588;7.248;2023-04-03T06:31:56;4.82;;;1.67;;
51358;SDS011;37448;51.588;7.248;2023-04-03T06:33:56;3.08;;;1.30;;
51358;SDS011;37448;51.588;7.248;2023-04-03T06:35:57;7.10;;;1.35;;
51358;SDS011;37448;51.588;7.248;2023-04-03T06:37:58;3.05;;;1.70;;
51358;SDS011;37448;51.588;7.248;2023-04-03T06:39:58;3.35;;;1.40;;
51358;SDS011;37448;51.588;7.248;2023-04-03T06:42:00;7.40;;;1.40;;
51358;SDS011;37448;51.588;7.248;2023-04-03T06:44:09;4.25;;;1.42;;
51358;SDS011;37448;51.588;7.248;2023-04-03T06:46:17;2.67;;;0.98;;
51358;SDS011;37448;51.588;7.248;2023-04-03T06:48:19;2.50;;;1.30;;
51358;SDS011;37448;51.588;7.248;2023-04-03T06:50:20;3.90;;;0.98;;
51358;SDS011;37448;51.588;7.248;2023-04-03T06:52:21;7.15;;;1.10;;
51358;SDS011;37448;51.588;7.248;2023-04-03T06:54:21;1.80;;;0.90;;
51358;SDS011;37448;51.588;7.248;2023-04-03T06:56:22;3.72;;;1.08;;
51358;SDS011;37448;51.588;7.248;2023-04-03T06:58:23;3.00;;;1.02;;
51358;SDS011;37448;51.588;7.248;2023-04-03T07:00:24;2.88;;;1.40;;
51358;SDS011;37448;51.588;7.248;2023-04-03T07:02:24;4.82;;;1.45;;
51358;SDS011;37448;51.588;7.248;2023-04-03T07:04:25;3.60;;;1.15;;
51358;SDS011;37448;51.588;7.248;2023-04-03T07:06:26;4.32;;;1.13;;
51358;SDS011;37448;51.588;7.248;2023-04-03T07:08:26;1.98;;;0.93;;
51358;SDS011;37448;51.588;7.248;2023-04-03T07:10:27;3.65;;;1.15;;
51358;SDS011;37448;51.588;7.248;2023-04-03T07:12:27;3.40;;;1.30;;
51358;SDS011;37448;51.588;7.248;2023-04-03T07:14:27;3.13;;;0.88;;
51358;SDS011;37448;51.588;7.248;2023-04-03T07:16:28;2.67;;;1.20;;
51358;SDS011;37448;51.588;7.248;2023-04-03T07:18:31;1.90;;;0.90;;
51358;SDS011;37448;51.588;7.248;2023-04-03T07:20:32;2.90;;;1.10;;
51358;SDS011;37448;51.588;7.248;2023-04-03T07:22:32;3.70;;;1.38;;
51358;SDS011;37448;51.588;7.248;2023-04-03T07:24:33;7.13;;;1.25;;
51358;SDS011;37448;51.588;7.248;2023-04-03T07:26:33;3.03;;;1.33;;
51358;SDS011;37448;51.588;7.248;2023-04-03T07:28:34;6.32;;;1.25;;
51358;SDS011;37448;51.588;7.248;2023-04-03T07:30:34;5.20;;;1.35;;
51358;SDS011;37448;51.588;7.248;2023-04-03T07:32:35;3.15;;;1.40;;
51358;SDS011;37448;51.588;7.248;2023-04-03T07:34:35;5.50;;;1.50;;
51358;SDS011;37448;51.588;7.248;2023-04-03T07:36:36;4.55;;;1.20;;
51358;SDS011;37448;51.588;7.248;2023-04-03T07:38:37;2.85;;;1.10;;
51358;SDS011;37448;51.588;7.248;2023-04-03T07:40:38;2.25;;;1.50;;
51358;SDS011;37448;51.588;7.248;2023-04-03T07:42:39;4.90;;;1.30;;
51358;SDS011;37448;51.588;7.248;2023-04-03T07:44:40;3.85;;;1.27;;
51358;SDS011;37448;51.588;7.248;2023-04-03T07:46:41;4.75;;;1.30;;
51358;SDS011;37448;51.588;7.248;2023-04-03T07:48:42;3.15;;;1.42;;
51358;SDS011;37448;51.588;7.248;2023-04-03T07:50:43;3.78;;;1.60;;
51358;SDS011;37448;51.588;7.248;2023-04-03T07:52:44;4.18;;;1.23;;
51358;SDS011;37448;51.588;7.248;2023-04-03T07:54:45;2.95;;;1.27;;
51358;SDS011;37448;51.588;7.248;2023-04-03T07:56:46;4.82;;;1.80;;
51358;SDS011;37448;51.588;7.248;2023-04-03T07:58:46;3.47;;;1.15;;
51358;SDS011;37448;51.588;7.248;2023-04-03T08:00:47;3.47;;;1.20;;
51358;SDS011;37448;51.588;7.248;2023-04-03T08:02:48;2.67;;;1.67;;
51358;SDS011;37448;51.588;7.248;2023-04-03T08:04:51;6.72;;;1.92;;
51358;SDS011;37448;51.588;7.248;2023-04-03T08:06:52;4.65;;;1.13;;
51358;SDS011;37448;51.588;7.248;2023-04-03T08:08:52;4.65;;;1.08;;
51358;SDS011;37448;51.588;7.248;2023-04-03T08:10:53;9.00;;;1.40;;
51358;SDS011;37448;51.588;7.248;2023-04-03T08:12:54;2.83;;;1.23;;
51358;SDS011;37448;51.588;7.248;2023-04-03T08:14:55;7.38;;;1.27;;
51358;SDS011;37448;51.588;7.248;2023-04-03T08:16:55;3.97;;;1.10;;
51358;SDS011;37448;51.588;7.248;2023-04-03T08:18:56;2.17;;;0.82;;
51358;SDS011;37448;51.588;7.248;2023-04-03T08:20:56;3.00;;;1.08;;
51358;SDS011;37448;51.588;7.248;2023-04-03T08:22:57;2.50;;;1.23;;
51358;SDS011;37448;51.588;7.248;2023-04-03T08:24:57;3.53;;;1.23;;
51358;SDS011;37448;51.588;7.248;2023-04-03T08:26:57;4.32;;;1.48;;
51358;SDS011;37448;51.588;7.248;2023-04-03T08:28:58;3.95;;;1.35;;
51358;SDS011;37448;51.588;7.248;2023-04-03T08:31:02;2.65;;;0.82;;
51358;SDS011;37448;51.588;7.248;2023-04-03T08:33:05;7.18;;;0.80;;
51358;SDS011;37448;51.588;7.248;2023-04-03T08:35:07;2.08;;;1.13;;
51358;SDS011;37448;51.588;7.248;2023-04-03T08:37:08;2.20;;;1.20;;
51358;SDS011;37448;51.588;7.248;2023-04-03T08:39:08;3.53;;;0.90;;
51358;SDS011;37448;51.588;7.248;2023-04-03T08:43:27;1.80;;;0.68;;
51358;SDS011;37448;51.588;7.248;2023-04-03T08:47:48;4.03;;;1.10;;
51358;SDS011;37448;51.588;7.248;2023-04-03T08:49:57;2.88;;;1.00;;
51358;SDS011;37448;51.588;7.248;2023-04-03T08:52:01;2.88;;;0.75;;
51358;SDS011;37448;51.588;7.248;2023-04-03T08:54:16;3.92;;;1.13;;
51358;SDS011;37448;51.588;7.248;2023-04-03T08:56:23;2.80;;;0.82;;
51358;SDS011;37448;51.588;7.248;2023-04-03T08:58:29;3.50;;;1.52;;
51358;SDS011;37448;51.588;7.248;2023-04-03T09:00:41;6.03;;;1.13;;
51358;SDS011;37448;51.588;7.248;2023-04-03T09:02:47;1.13;;;0.75;;
51358;SDS011;37448;51.588;7.248;2023-04-03T09:04:49;1.50;;;0.77;;
51358;SDS011;37448;51.588;7.248;2023-04-03T09:06:51;4.32;;;1.08;;
51358;SDS011;37448;51.588;7.248;2023-04-03T09:09:15;3.70;;;1.10;;
51358;SDS011;37448;51.588;7.248;2023-04-03T09:11:21;4.60;;;0.82;;
51358;SDS011;37448;51.588;7.248;2023-04-03T09:13:33;2.28;;;0.80;;
51358;SDS011;37448;51.588;7.248;2023-04-03T09:15:41;2.75;;;1.10;;
51358;SDS011;37448;51.588;7.248;2023-04-03T09:18:03;2.78;;;0.70;;
51358;SDS011;37448;51.588;7.248;2023-04-03T09:23:03;1.50;;;0.73;;
51358;SDS011;37448;51.588;7.248;2023-04-03T09:25:32;2.25;;;0.90;;
51358;SDS011;37448;51.588;7.248;2023-04-03T09:27:37;2.65;;;0.70;;
51358;SDS011;37448;51.588;7.248;2023-04-03T09:29:43;2.50;;;0.80;;
51358;SDS011;37448;51.588;7.248;2023-04-03T09:31:46;2.97;;;0.82;;
51358;SDS011;37448;51.588;7.248;2023-04-03T09:33:50;2.17;;;0.88;;
51358;SDS011;37448;51.588;7.248;2023-04-03T09:35:54;2.97;;;0.70;;
51358;SDS011;37448;51.588;7.248;2023-04-03T09:42:28;1.92;;;1.20;;
51358;SDS011;37448;51.588;7.248;2023-04-03T09:44:32;2.58;;;1.02;;
51358;SDS011;37448;51.588;7.248;2023-04-03T09:46:35;1.42;;;0.90;;
51358;SDS011;37448;51.588;7.248;2023-04-03T09:48:37;2.03;;;1.20;;
51358;SDS011;37448;51.588;7.248;2023-04-03T09:52:50;2.58;;;0.68;;
51358;SDS011;37448;51.588;7.248;2023-04-03T09:54:54;35.05;;;4.22;;
51358;SDS011;37448;51.588;7.248;2023-04-03T09:57:13;6.60;;;1.65;;
51358;SDS011;37448;51.588;7.248;2023-04-03T09:59:14;1.58;;;0.70;;
51358;SDS011;37448;51.588;7.248;2023-04-03T10:01:21;2.10;;;0.98;;
51358;SDS011;37448;51.588;7.248;2023-04-03T10:03:34;0.82;;;0.57;;
51358;SDS011;37448;51.588;7.248;2023-04-03T10:05:37;2.63;;;0.70;;
51358;SDS011;37448;51.588;7.248;2023-04-03T10:07:38;3.13;;;1.20;;
51358;SDS011;37448;51.588;7.248;2023-04-03T10:09:40;1.27;;;0.70;;
51358;SDS011;37448;51.588;7.248;2023-04-03T10:13:59;3.85;;;1.20;;
51358;SDS011;37448;51.588;7.248;2023-04-03T10:16:09;1.27;;;0.68;;
51358;SDS011;37448;51.588;7.248;2023-04-03T10:20:49;1.90;;;0.60;;
51358;SDS011;37448;51.588;7.248;2023-04-03T10:32:11;2.90;;;1.05;;
51358;SDS011;37448;51.588;7.248;2023-04-03T10:34:25;1.05;;;0.95;;
51358;SDS011;37448;51.588;7.248;2023-04-03T10:36:46;2.38;;;0.65;;
51358;SDS011;37448;51.588;7.248;2023-04-03T10:41:16;2.50;;;0.75;;
51358;SDS011;37448;51.588;7.248;2023-04-03T10:48:26;1.90;;;0.85;;
51358;SDS011;37448;51.588;7.248;2023-04-03T10:50:42;3.35;;;1.10;;
51358;SDS011;37448;51.588;7.248;2023-04-03T10:53:02;1.08;;;0.70;;
51358;SDS011;37448;51.588;7.248;2023-04-03T10:57:24;2.55;;;0.90;;
51358;SDS011;37448;51.588;7.248;2023-04-03T10:59:40;1.70;;;0.60;;
51358;SDS011;37448;51.588;7.248;2023-04-03T11:01:44;2.97;;;1.08;;
51358;SDS011;37448;51.588;7.248;2023-04-03T11:03:49;3.33;;;0.68;;
51358;SDS011;37448;51.588;7.248;2023-04-03T11:05:53;1.88;;;0.73;;
51358;SDS011;37448;51.588;7.248;2023-04-03T11:07:55;1.15;;;0.70;;
51358;SDS011;37448;51.588;7.248;2023-04-03T11:10:02;2.45;;;0.80;;
51358;SDS011;37448;51.588;7.248;2023-04-03T11:12:13;3.05;;;0.73;;
51358;SDS011;37448;51.588;7.248;2023-04-03T11:14:18;2.38;;;0.70;;
51358;SDS011;37448;51.588;7.248;2023-04-03T11:16:27;0.77;;;0.52;;
51358;SDS011;37448;51.588;7.248;2023-04-03T11:20:48;1.23;;;0.65;;
51358;SDS011;37448;51.588;7.248;2023-04-03T11:27:17;2.63;;;0.68;;
51358;SDS011;37448;51.588;7.248;2023-04-03T11:29:23;2.25;;;0.80;;
51358;SDS011;37448;51.588;7.248;2023-04-03T11:35:44;1.70;;;0.60;;
51358;SDS011;37448;51.588;7.248;2023-04-03T11:37:49;1.52;;;0.70;;
51358;SDS011;37448;51.588;7.248;2023-04-03T11:42:13;1.45;;;0.70;;
51358;SDS011;37448;51.588;7.248;2023-04-03T11:46:51;0.50;;;0.30;;
51358;SDS011;37448;51.588;7.248;2023-04-03T11:48:54;1.05;;;0.45;;
51358;SDS011;37448;51.588;7.248;2023-04-03T11:50:56;1.48;;;0.70;;
51358;SDS011;37448;51.588;7.248;2023-04-03T11:57:43;2.03;;;0.63;;
51358;SDS011;37448;51.588;7.248;2023-04-03T12:00:42;1.67;;;0.80;;
51358;SDS011;37448;51.588;7.248;2023-04-03T12:02:41;1.95;;;0.50;;
51358;SDS011;37448;51.588;7.248;2023-04-03T12:04:42;4.18;;;0.85;;
51358;SDS011;37448;51.588;7.248;2023-04-03T12:07:21;2.47;;;0.50;;
51358;SDS011;37448;51.588;7.248;2023-04-03T12:11:34;4.60;;;0.63;;
51358;SDS011;37448;51.588;7.248;2023-04-03T12:13:38;1.48;;;0.88;;
51358;SDS011;37448;51.588;7.248;2023-04-03T12:17:40;2.92;;;0.93;;
51358;SDS011;37448;51.588;7.248;2023-04-03T12:19:40;2.35;;;0.70;;
51358;SDS011;37448;51.588;7.248;2023-04-03T12:24:03;1.38;;;0.63;;
51358;SDS011;37448;51.588;7.248;2023-04-03T12:26:19;4.03;;;0.80;;
51358;SDS011;37448;51.588;7.248;2023-04-03T12:28:25;3.28;;;0.93;;
51358;SDS011;37448;51.588;7.248;2023-04-03T12:30:27;2.78;;;1.02;;
51358;SDS011;37448;51.588;7.248;2023-04-03T12:35:00;1.77;;;0.60;;
51358;SDS011;37448;51.588;7.248;2023-04-03T12:37:19;2.35;;;0.85;;
51358;SDS011;37448;51.588;7.248;2023-04-03T12:41:36;3.03;;;0.82;;
51358;SDS011;37448;51.588;7.248;2023-04-03T12:47:45;1.00;;;0.57;;
51358;SDS011;37448;51.588;7.248;2023-04-03T12:49:49;1.30;;;0.73;;
51358;SDS011;37448;51.588;7.248;2023-04-03T12:51:50;0.85;;;0.40;;
51358;SDS011;37448;51.588;7.248;2023-04-03T12:53:51;2.38;;;0.45;;
51358;SDS011;37448;51.588;7.248;2023-04-03T12:55:58;1.10;;;0.40;;
51358;SDS011;37448;51.588;7.248;2023-04-03T12:58:26;1.38;;;0.57;;
51358;SDS011;37448;51.588;7.248;2023-04-03T13:02:35;1.20;;;0.52;;
51358;SDS011;37448;51.588;7.248;2023-04-03T13:04:37;2.63;;;0.70;;
51358;SDS011;37448;51.588;7.248;2023-04-03T13:06:39;1.00;;;0.77;;
51358;SDS011;37448;51.588;7.248;2023-04-03T13:10:57;1.10;;;0.40;;
51358;SDS011;37448;51.588;7.248;2023-04-03T13:13:08;1.23;;;0.50;;
51358;SDS011;37448;51.588;7.248;2023-04-03T13:15:15;0.68;;;0.50;;
51358;SDS011;37448;51.588;7.248;2023-04-03T13:17:19;1.55;;;0.60;;
51358;SDS011;37448;51.588;7.248;2023-04-03T13:19:20;1.40;;;0.52;;
51358;SDS011;37448;51.588;7.248;2023-04-03T13:23:27;4.05;;;0.40;;
51358;SDS011;37448;51.588;7.248;2023-04-03T13:25:30;2.40;;;1.55;;
51358;SDS011;37448;51.588;7.248;2023-04-03T13:27:33;1.25;;;0.45;;
51358;SDS011;37448;51.588;7.248;2023-04-03T13:29:35;2.10;;;0.52;;
51358;SDS011;37448;51.588;7.248;2023-04-03T13:31:37;2.78;;;0.50;;
51358;SDS011;37448;51.588;7.248;2023-04-03T13:33:43;1.15;;;0.60;;
51358;SDS011;37448;51.588;7.248;2023-04-03T13:35:57;1.63;;;0.70;;
51358;SDS011;37448;51.588;7.248;2023-04-03T13:40:18;3.13;;;0.70;;
51358;SDS011;37448;51.588;7.248;2023-04-03T13:42:23;1.58;;;0.60;;
51358;SDS011;37448;51.588;7.248;2023-04-03T13:44:28;2.85;;;0.75;;
51358;SDS011;37448;51.588;7.248;2023-04-03T13:46:31;2.20;;;0.63;;
51358;SDS011;37448;51.588;7.248;2023-04-03T13:48:43;1.20;;;0.93;;
51358;SDS011;37448;51.588;7.248;2023-04-03T13:53:01;3.58;;;0.95;;